createdAt,value
2018-07-09T00:00:56.288Z,17.97
2018-07-09T00:03:24.918Z,18.05
2018-07-09T00:05:53.772Z,18.03
2018-07-09T00:08:22.409Z,17.91
2018-07-09T00:10:57.052Z,17.93
2018-07-09T00:13:26.275Z,17.93
2018-07-09T00:15:55.255Z,17.80
2018-07-09T00:18:24.010Z,17.85
2018-07-09T00:20:52.641Z,17.79
2018-07-09T00:23:21.284Z,17.90
2018-07-09T00:25:50.781Z,17.81
2018-07-09T00:28:20.302Z,17.77
2018-07-09T00:30:49.015Z,17.68
2018-07-09T00:33:18.235Z,17.63
2018-07-09T00:35:47.352Z,17.61
2018-07-09T00:38:16.458Z,17.55
2018-07-09T00:40:45.196Z,17.60
2018-07-09T00:43:13.871Z,17.56
2018-07-09T00:45:42.483Z,17.51
2018-07-09T00:48:11.124Z,17.53
2018-07-09T00:50:39.766Z,17.43
2018-07-09T00:53:08.439Z,17.40
2018-07-09T00:55:37.071Z,17.43
2018-07-09T00:58:05.795Z,17.41
2018-07-09T01:00:34.461Z,17.40
2018-07-09T01:03:03.138Z,17.38
2018-07-09T01:05:31.719Z,17.26
2018-07-09T01:08:00.406Z,17.26
2018-07-09T01:10:29.034Z,17.24
2018-07-09T01:12:57.700Z,17.20
2018-07-09T01:15:26.338Z,17.16
2018-07-09T01:17:54.977Z,17.13
2018-07-09T01:20:23.682Z,17.07
2018-07-09T01:22:52.229Z,17.07
2018-07-09T01:25:20.870Z,17.08
2018-07-09T01:27:49.797Z,17.00
2018-07-09T01:30:18.423Z,16.99
2018-07-09T01:32:47.131Z,16.93
2018-07-09T01:35:15.789Z,16.96
2018-07-09T01:37:44.451Z,16.93
2018-07-09T01:40:13.115Z,16.95
2018-07-09T01:42:41.739Z,16.89
2018-07-09T01:45:10.431Z,16.87
2018-07-09T01:47:39.093Z,16.79
2018-07-09T01:50:07.757Z,16.82
2018-07-09T01:52:36.371Z,16.77
2018-07-09T01:55:05.029Z,16.73
2018-07-09T01:57:33.643Z,16.63
2018-07-09T02:00:02.311Z,16.66
2018-07-09T02:02:30.966Z,16.66
2018-07-09T02:04:59.662Z,16.58
2018-07-09T02:07:28.284Z,16.63
2018-07-09T02:09:56.930Z,16.66
2018-07-09T02:12:25.601Z,16.54
2018-07-09T02:14:54.252Z,16.57
2018-07-09T02:17:23.001Z,16.55
2018-07-09T02:19:51.615Z,16.57
2018-07-09T02:22:20.257Z,16.51
2018-07-09T02:24:50.092Z,16.54
2018-07-09T02:27:18.736Z,16.44
2018-07-09T02:29:47.367Z,16.48
2018-07-09T02:32:16.016Z,16.51
2018-07-09T02:34:44.622Z,16.41
2018-07-09T02:37:13.290Z,16.41
2018-07-09T02:39:41.913Z,16.35
2018-07-09T02:42:10.539Z,16.32
2018-07-09T02:44:39.180Z,16.34
2018-07-09T02:47:07.803Z,16.37
2018-07-09T02:49:36.517Z,16.33
2018-07-09T02:52:05.145Z,16.22
2018-07-09T02:54:33.808Z,16.19
2018-07-09T02:57:02.453Z,16.19
2018-07-09T02:59:31.063Z,16.21
2018-07-09T03:01:59.727Z,16.25
2018-07-09T03:04:28.436Z,16.24
2018-07-09T03:06:57.137Z,16.30
2018-07-09T03:09:25.803Z,16.28
2018-07-09T03:11:54.456Z,16.30
2018-07-09T03:14:23.110Z,16.25
2018-07-09T03:16:51.864Z,16.36
2018-07-09T03:19:20.536Z,16.32
2018-07-09T03:21:49.220Z,16.33
2018-07-09T03:24:17.937Z,16.27
2018-07-09T03:26:46.592Z,16.30
2018-07-09T03:29:15.277Z,16.32
2018-07-09T03:31:43.928Z,16.28
2018-07-09T03:34:12.652Z,16.27
2018-07-09T03:36:41.291Z,16.25
2018-07-09T03:39:09.987Z,16.31
2018-07-09T03:41:38.670Z,16.30
2018-07-09T03:44:07.288Z,16.43
2018-07-09T03:46:35.953Z,16.52
2018-07-09T03:49:04.803Z,16.50
2018-07-09T03:51:33.852Z,16.56
2018-07-09T03:54:02.516Z,16.55
2018-07-09T03:56:31.215Z,16.78
2018-07-09T03:58:59.885Z,16.81
2018-07-09T04:01:28.675Z,16.87
2018-07-09T04:03:57.365Z,16.94
2018-07-09T04:06:26.072Z,16.86
2018-07-09T04:08:54.760Z,17.02
2018-07-09T04:11:23.455Z,17.17
2018-07-09T04:13:52.135Z,17.15
2018-07-09T04:16:20.959Z,17.23
2018-07-09T04:18:49.674Z,17.29
2018-07-09T04:21:18.305Z,17.11
2018-07-09T04:23:46.986Z,17.11
2018-07-09T04:26:15.729Z,17.23
2018-07-09T04:28:44.368Z,17.31
2018-07-09T04:31:13.247Z,17.23
2018-07-09T04:33:41.912Z,17.13
2018-07-09T04:36:10.584Z,17.19
2018-07-09T04:38:39.267Z,17.31
2018-07-09T04:41:07.987Z,17.28
2018-07-09T04:43:36.800Z,17.32
2018-07-09T04:46:05.684Z,17.38
2018-07-09T04:48:34.673Z,17.44
2018-07-09T04:51:03.589Z,17.50
2018-07-09T04:53:32.257Z,17.45
2018-07-09T04:56:00.943Z,17.51
2018-07-09T04:58:29.583Z,17.45
2018-07-09T05:00:58.284Z,17.43
2018-07-09T05:03:26.988Z,17.43
2018-07-09T05:05:55.671Z,17.47
2018-07-09T05:08:24.386Z,17.60
2018-07-09T05:10:53.089Z,17.67
2018-07-09T05:13:22.361Z,17.68
2018-07-09T05:15:51.033Z,17.63
2018-07-09T05:18:19.775Z,17.60
2018-07-09T05:20:48.419Z,17.55
2018-07-09T05:23:17.202Z,17.54
2018-07-09T05:25:46.280Z,17.53
2018-07-09T05:28:15.198Z,17.60
2018-07-09T05:30:43.956Z,17.47
2018-07-09T05:33:12.602Z,17.61
2018-07-09T05:35:41.304Z,17.47
2018-07-09T05:38:09.973Z,17.46
2018-07-09T05:40:38.734Z,17.40
2018-07-09T05:43:07.400Z,17.45
2018-07-09T05:45:36.047Z,17.45
2018-07-09T05:48:05.832Z,17.37
2018-07-09T05:50:34.514Z,17.41
2018-07-09T05:53:03.233Z,17.47
2018-07-09T05:55:31.880Z,17.50
2018-07-09T05:58:00.574Z,17.51
2018-07-09T06:00:29.223Z,17.56
2018-07-09T06:02:57.925Z,17.52
2018-07-09T06:05:26.648Z,17.39
2018-07-09T06:07:55.319Z,17.40
2018-07-09T06:10:24.006Z,17.47
2018-07-09T06:12:52.659Z,17.41
2018-07-09T06:15:21.351Z,17.44
2018-07-09T06:17:50.016Z,17.44
2018-07-09T06:20:18.748Z,17.32
2018-07-09T06:22:47.515Z,17.30
2018-07-09T06:25:16.157Z,17.35
2018-07-09T06:27:44.856Z,17.30
2018-07-09T06:30:13.531Z,17.28
2018-07-09T06:32:42.246Z,17.38
2018-07-09T06:35:10.944Z,17.47
2018-07-09T06:37:39.636Z,17.49
2018-07-09T06:40:08.389Z,17.51
2018-07-09T06:42:37.081Z,17.68
2018-07-09T06:45:06.123Z,17.60
2018-07-09T06:47:34.812Z,17.61
2018-07-09T06:50:03.552Z,17.59
2018-07-09T06:52:32.375Z,17.59
2018-07-09T06:55:01.045Z,17.63
2018-07-09T06:57:29.693Z,17.69
2018-07-09T06:59:58.357Z,17.75
2018-07-09T07:02:27.100Z,17.85
2018-07-09T07:04:55.715Z,17.72
2018-07-09T07:07:24.361Z,17.81
2018-07-09T07:09:53.107Z,17.87
2018-07-09T07:12:21.898Z,18.07
2018-07-09T07:14:50.565Z,18.11
2018-07-09T07:17:19.410Z,18.14
2018-07-09T07:19:48.053Z,18.10
2018-07-09T07:22:16.730Z,18.02
2018-07-09T07:24:45.424Z,18.00
2018-07-09T07:27:14.130Z,17.95
2018-07-09T07:29:42.818Z,17.95
2018-07-09T07:32:11.546Z,17.99
2018-07-09T07:34:40.229Z,17.97
2018-07-09T07:37:08.887Z,17.91
2018-07-09T07:39:37.559Z,17.98
2018-07-09T07:42:06.367Z,17.93
2018-07-09T07:44:35.103Z,17.94
2018-07-09T07:47:03.757Z,17.96
2018-07-09T07:49:32.444Z,17.93
2018-07-09T07:52:01.155Z,18.00
2018-07-09T07:54:29.848Z,17.92
2018-07-09T07:56:58.495Z,18.08
2018-07-09T07:59:27.128Z,18.28
2018-07-09T08:01:55.788Z,18.50
2018-07-09T08:04:24.717Z,18.29
2018-07-09T08:06:53.556Z,18.27
2018-07-09T08:09:22.271Z,18.14
2018-07-09T08:11:52.815Z,18.23
2018-07-09T08:14:21.504Z,18.03
2018-07-09T08:16:50.225Z,17.97
2018-07-09T08:19:18.913Z,18.00
2018-07-09T08:21:47.629Z,18.39
2018-07-09T08:24:16.376Z,18.49
2018-07-09T08:26:45.093Z,18.48
2018-07-09T08:29:13.752Z,18.81
2018-07-09T08:31:42.486Z,18.50
2018-07-09T08:34:11.184Z,18.36
2018-07-09T08:36:39.869Z,18.38
2018-07-09T08:39:08.522Z,18.40
2018-07-09T08:41:37.210Z,18.53
2018-07-09T08:44:06.035Z,18.48
2018-07-09T08:46:34.923Z,18.37
2018-07-09T08:49:04.572Z,18.40
2018-07-09T08:51:33.279Z,18.42
2018-07-09T08:54:01.964Z,18.46
2018-07-09T08:56:30.710Z,18.37
2018-07-09T08:58:59.434Z,18.35
2018-07-09T09:01:28.123Z,18.50
2018-07-09T09:03:56.888Z,18.64
2018-07-09T09:06:26.477Z,18.77
2018-07-09T09:08:55.802Z,18.83
2018-07-09T09:11:24.544Z,19.25
2018-07-09T09:13:53.372Z,19.47
2018-07-09T09:16:22.148Z,19.80
2018-07-09T09:18:51.124Z,19.26
2018-07-09T09:21:20.009Z,19.25
2018-07-09T09:23:48.695Z,19.25
2018-07-09T09:26:17.381Z,19.20
2018-07-09T09:28:46.065Z,19.23
2018-07-09T09:31:14.753Z,19.58
2018-07-09T09:33:43.493Z,19.74
2018-07-09T09:36:12.244Z,19.71
2018-07-09T09:38:40.970Z,19.58
2018-07-09T09:41:09.733Z,20.14
2018-07-09T09:43:38.453Z,20.73
2018-07-09T09:46:07.357Z,20.79
2018-07-09T09:48:36.065Z,20.64
2018-07-09T09:51:04.809Z,20.88
2018-07-09T09:53:33.542Z,20.45
2018-07-09T09:56:02.261Z,20.74
2018-07-09T09:58:30.965Z,20.60
2018-07-09T10:01:00.219Z,20.18
2018-07-09T10:03:28.916Z,20.02
2018-07-09T10:05:57.588Z,20.33
2018-07-09T10:08:26.311Z,20.81
2018-07-09T10:10:54.964Z,20.94
2018-07-09T10:13:23.626Z,20.58
2018-07-09T10:15:52.300Z,20.16
2018-07-09T10:18:21.048Z,20.26
2018-07-09T10:20:49.683Z,20.05
2018-07-09T10:23:18.428Z,20.18
2018-07-09T10:25:47.074Z,20.41
2018-07-09T10:28:15.762Z,20.31
2018-07-09T10:30:44.452Z,20.35
2018-07-09T10:33:13.109Z,20.56
2018-07-09T10:35:41.784Z,20.99
2018-07-09T10:38:10.510Z,21.14
2018-07-09T10:40:39.237Z,21.07
2018-07-09T10:43:07.896Z,21.00
2018-07-09T10:45:36.568Z,20.85
2018-07-09T10:48:05.307Z,21.08
2018-07-09T10:50:33.942Z,21.05
2018-07-09T10:53:02.596Z,21.08
2018-07-09T10:55:31.260Z,21.03
2018-07-09T10:58:00.015Z,21.15
2018-07-09T11:00:28.726Z,21.45
2018-07-09T11:02:57.438Z,21.54
2018-07-09T11:05:26.199Z,21.30
2018-07-09T11:07:55.689Z,21.38
2018-07-09T11:10:24.429Z,21.22
2018-07-09T11:12:53.207Z,20.96
2018-07-09T11:15:21.906Z,20.96
2018-07-09T11:17:51.146Z,21.25
2018-07-09T11:20:19.836Z,21.67
2018-07-09T11:22:48.548Z,21.83
2018-07-09T11:25:17.287Z,21.52
2018-07-09T11:27:45.977Z,21.72
2018-07-09T11:30:14.663Z,21.72
2018-07-09T11:32:43.434Z,21.20
2018-07-09T11:35:12.209Z,21.20
2018-07-09T11:37:41.012Z,21.04
2018-07-09T11:40:09.790Z,21.09
2018-07-09T11:42:38.522Z,21.14
2018-07-09T11:45:07.216Z,21.25
2018-07-09T11:47:36.014Z,21.23
2018-07-09T11:50:04.977Z,21.46
2018-07-09T11:52:33.830Z,21.83
2018-07-09T11:55:02.673Z,21.81
2018-07-09T11:57:31.572Z,21.04
2018-07-09T12:00:00.327Z,20.81
2018-07-09T12:02:29.029Z,20.83
2018-07-09T12:04:57.782Z,20.86
2018-07-09T12:07:26.509Z,20.78
2018-07-09T12:09:55.277Z,20.21
2018-07-09T12:12:23.932Z,20.16
2018-07-09T12:14:52.642Z,20.04
2018-07-09T12:17:21.504Z,20.14
2018-07-09T12:19:50.189Z,20.46
2018-07-09T12:22:18.938Z,20.10
2018-07-09T12:24:47.616Z,20.14
2018-07-09T12:27:16.275Z,20.21
2018-07-09T12:29:44.945Z,20.27
2018-07-09T12:32:13.705Z,20.50
2018-07-09T12:34:42.486Z,21.04
2018-07-09T12:37:11.489Z,20.99
2018-07-09T12:39:40.280Z,20.96
2018-07-09T12:42:08.999Z,21.06
2018-07-09T12:44:37.871Z,21.05
2018-07-09T12:47:06.627Z,20.87
2018-07-09T12:49:35.305Z,20.77
2018-07-09T12:52:03.964Z,20.90
2018-07-09T12:54:32.752Z,21.17
2018-07-09T12:57:01.415Z,20.79
2018-07-09T12:59:30.120Z,20.40
2018-07-09T13:01:58.787Z,20.33
2018-07-09T13:04:27.456Z,20.35
2018-07-09T13:06:56.148Z,19.94
2018-07-09T13:09:24.874Z,19.82
2018-07-09T13:11:53.633Z,19.99
2018-07-09T13:14:22.380Z,19.86
2018-07-09T13:16:51.029Z,19.72
2018-07-09T13:19:19.709Z,19.75
2018-07-09T13:21:48.418Z,19.74
2018-07-09T13:24:17.132Z,20.10
2018-07-09T13:26:45.814Z,20.15
2018-07-09T13:29:14.481Z,19.70
2018-07-09T13:31:43.196Z,19.42
2018-07-09T13:34:11.844Z,19.36
2018-07-09T13:36:40.567Z,19.36
2018-07-09T13:39:09.342Z,19.24
2018-07-09T13:41:38.152Z,19.31
2018-07-09T13:44:06.877Z,19.24
2018-07-09T13:46:35.692Z,19.37
2018-07-09T13:49:04.385Z,19.51
2018-07-09T13:51:33.045Z,19.70
2018-07-09T13:54:01.724Z,19.67
2018-07-09T13:56:30.372Z,19.58
2018-07-09T13:58:59.048Z,19.69
2018-07-09T14:01:27.717Z,19.99
2018-07-09T14:03:56.383Z,20.14
2018-07-09T14:06:25.123Z,20.13
2018-07-09T14:08:53.842Z,19.81
2018-07-09T14:11:22.509Z,19.65
2018-07-09T14:13:51.192Z,19.73
2018-07-09T14:16:19.966Z,19.94
2018-07-09T14:18:48.676Z,19.79
2018-07-09T14:21:17.316Z,19.81
2018-07-09T14:23:46.020Z,19.75
2018-07-09T14:26:14.724Z,19.59
2018-07-09T14:28:43.368Z,19.77
2018-07-09T14:31:12.132Z,19.80
2018-07-09T14:33:40.824Z,19.74
2018-07-09T14:36:09.521Z,19.77
2018-07-09T14:38:38.240Z,19.79
2018-07-09T14:41:06.992Z,19.61
2018-07-09T14:43:35.636Z,19.67
2018-07-09T14:46:04.399Z,19.35
2018-07-09T14:48:33.131Z,19.36
2018-07-09T14:51:01.783Z,19.40
2018-07-09T14:53:30.504Z,19.50
2018-07-09T14:55:59.204Z,19.62
2018-07-09T14:58:28.524Z,19.73
2018-07-09T15:00:57.192Z,19.73
2018-07-09T15:03:25.920Z,19.22
2018-07-09T15:08:29.905Z,19.29
2018-07-09T15:10:58.577Z,19.12
2018-07-09T15:13:27.276Z,19.04
2018-07-09T15:15:55.990Z,18.68
2018-07-09T15:18:24.682Z,18.59
2018-07-09T15:20:53.539Z,18.69
2018-07-09T15:23:22.207Z,18.59
2018-07-09T15:25:51.046Z,18.77
2018-07-09T15:28:19.753Z,18.84
2018-07-09T15:30:48.420Z,18.81
2018-07-09T15:33:17.155Z,18.82
2018-07-09T15:35:45.860Z,18.89
2018-07-09T15:38:14.545Z,19.09
2018-07-09T15:40:43.315Z,19.03
2018-07-09T15:43:12.111Z,19.20
2018-07-09T15:45:40.868Z,19.20
2018-07-09T15:48:10.482Z,19.11
2018-07-09T15:50:39.320Z,18.98
2018-07-09T15:53:08.070Z,18.85
2018-07-09T15:55:36.736Z,19.01
2018-07-09T15:58:05.717Z,19.12
2018-07-09T16:00:34.416Z,19.18
2018-07-09T16:03:03.166Z,19.26
2018-07-09T16:05:31.811Z,19.22
2018-07-09T16:08:00.449Z,19.00
2018-07-09T16:10:29.135Z,19.16
2018-07-09T16:12:58.096Z,19.18
2018-07-09T16:15:26.904Z,19.07
2018-07-09T16:17:55.563Z,19.12
2018-07-09T16:20:24.348Z,19.21
2018-07-09T16:22:52.911Z,19.12
2018-07-09T16:25:21.634Z,18.99
2018-07-09T16:27:50.461Z,18.91
2018-07-09T16:30:19.171Z,19.15
2018-07-09T16:32:47.877Z,18.94
2018-07-09T16:35:16.550Z,18.92
2018-07-09T16:37:45.250Z,19.06
2018-07-09T16:40:13.920Z,18.86
2018-07-09T16:42:42.979Z,19.07
2018-07-09T16:45:11.722Z,19.14
2018-07-09T16:47:41.071Z,19.15
2018-07-09T16:50:10.029Z,19.21
2018-07-09T16:52:38.757Z,19.23
2018-07-09T16:55:07.528Z,19.08
2018-07-09T16:57:36.317Z,19.12
2018-07-09T17:00:05.140Z,19.17
2018-07-09T17:02:33.903Z,19.13
2018-07-09T17:05:02.580Z,19.01
2018-07-09T17:07:31.273Z,19.10
2018-07-09T17:09:59.952Z,19.25
2018-07-09T17:12:28.629Z,19.17
2018-07-09T17:14:57.336Z,19.01
2018-07-09T17:17:26.017Z,18.89
2018-07-09T17:19:54.780Z,19.08
2018-07-09T17:22:23.444Z,19.01
2018-07-09T17:24:52.146Z,19.20
2018-07-09T17:27:21.477Z,19.04
2018-07-09T17:29:50.132Z,18.82
2018-07-09T17:32:18.868Z,18.80
2018-07-09T17:34:47.537Z,18.77
2018-07-09T17:37:16.152Z,18.88
2018-07-09T17:39:44.823Z,18.83
2018-07-09T17:42:13.491Z,18.79
2018-07-09T17:44:42.144Z,18.95
2018-07-09T17:47:10.831Z,18.70
2018-07-09T17:49:39.505Z,18.62
2018-07-09T17:52:08.435Z,18.56
2018-07-09T17:54:37.486Z,18.50
2018-07-09T17:57:06.181Z,18.49
2018-07-09T17:59:34.818Z,18.36
2018-07-09T18:02:03.528Z,18.35
2018-07-09T18:04:32.265Z,18.24
2018-07-09T18:07:00.919Z,17.97
2018-07-09T18:09:29.784Z,18.05
2018-07-09T18:11:58.475Z,18.00
2018-07-09T18:14:27.166Z,17.97
2018-07-09T18:16:55.914Z,17.94
2018-07-09T18:19:24.747Z,17.98
2018-07-09T18:21:53.436Z,18.04
2018-07-09T18:24:22.124Z,18.05
2018-07-09T18:26:50.871Z,18.08
2018-07-09T18:29:20.034Z,18.04
2018-07-09T18:31:48.749Z,18.06
2018-07-09T18:34:17.389Z,17.84
2018-07-09T18:36:46.141Z,17.76
2018-07-09T18:39:14.840Z,17.85
2018-07-09T18:41:43.558Z,17.84
2018-07-09T18:44:12.236Z,17.93
2018-07-09T18:46:40.895Z,17.76
2018-07-09T18:49:09.638Z,17.78
2018-07-09T18:51:38.308Z,17.70
2018-07-09T18:54:06.999Z,17.88
2018-07-09T18:56:35.663Z,17.91
2018-07-09T18:59:04.386Z,17.81
2018-07-09T19:01:33.727Z,17.88
2018-07-09T19:04:02.554Z,17.82
2018-07-09T19:06:47.618Z,17.72
2018-07-09T19:09:16.387Z,17.80
2018-07-09T19:11:45.076Z,17.74
2018-07-09T19:14:13.858Z,17.79
2018-07-09T19:16:54.451Z,17.79
2018-07-09T19:19:35.106Z,17.72
2018-07-09T19:22:04.072Z,17.66
2018-07-09T19:24:32.337Z,17.66
2018-07-09T19:27:00.736Z,17.67
2018-07-09T19:29:28.454Z,17.63
2018-07-09T19:31:56.249Z,17.70
2018-07-09T19:34:23.904Z,17.56
2018-07-09T19:36:51.722Z,17.68
2018-07-09T19:39:19.422Z,17.70
2018-07-09T19:41:47.175Z,17.74
2018-07-09T19:44:14.842Z,17.87
2018-07-09T19:46:42.506Z,17.76
2018-07-09T19:49:12.953Z,17.72
2018-07-09T19:51:40.708Z,17.64
2018-07-09T19:54:08.393Z,17.38
2018-07-09T19:56:36.056Z,17.46
2018-07-09T19:59:03.897Z,17.38
2018-07-09T20:01:31.585Z,17.36
2018-07-09T20:03:59.263Z,17.23
2018-07-09T20:06:26.953Z,17.25
2018-07-09T20:08:59.997Z,17.18
2018-07-09T20:11:33.036Z,17.10
2018-07-09T20:14:05.995Z,17.16
2018-07-09T20:16:38.981Z,17.14
2018-07-09T20:19:07.184Z,17.10
2018-07-09T20:21:35.882Z,17.04
2018-07-09T20:24:03.589Z,16.98
2018-07-09T20:26:31.296Z,16.88
2018-07-09T20:28:58.996Z,16.91
2018-07-09T20:31:26.697Z,16.84
2018-07-09T20:33:54.343Z,16.90
2018-07-09T20:36:22.069Z,16.85
2018-07-09T20:38:49.743Z,16.84
2018-07-09T20:41:17.456Z,16.89
2018-07-09T20:43:45.152Z,16.81
2018-07-09T20:46:12.848Z,16.76
2018-07-09T20:48:40.534Z,16.75
2018-07-09T20:51:08.226Z,16.74
2018-07-09T20:53:35.901Z,16.70
2018-07-09T20:56:03.626Z,16.63
2018-07-09T20:58:31.322Z,16.62
2018-07-09T21:00:59.005Z,16.47
2018-07-09T21:03:26.707Z,16.46
2018-07-09T21:05:54.412Z,16.63
2018-07-09T21:08:22.138Z,16.61
2018-07-09T21:10:49.849Z,16.62
2018-07-09T21:13:17.551Z,16.54
2018-07-09T21:15:45.410Z,16.56
2018-07-09T21:18:13.015Z,16.61
2018-07-09T21:20:40.689Z,16.55
2018-07-09T21:23:08.424Z,16.59
2018-07-09T21:25:36.116Z,16.50
2018-07-09T21:28:03.870Z,16.40
2018-07-09T21:30:31.544Z,16.39
2018-07-09T21:32:59.262Z,16.39
2018-07-09T21:35:26.994Z,16.34
2018-07-09T21:37:54.862Z,16.20
2018-07-09T21:40:23.081Z,16.12
2018-07-09T21:42:50.783Z,16.12
2018-07-09T21:45:18.479Z,16.17
2018-07-09T21:47:46.743Z,16.29
2018-07-09T21:50:14.436Z,16.16
2018-07-09T21:52:42.124Z,16.24
2018-07-09T21:55:09.830Z,16.34
2018-07-09T21:57:37.523Z,16.46
2018-07-09T22:00:05.207Z,16.29
2018-07-09T22:02:32.915Z,16.15
2018-07-09T22:05:00.592Z,16.12
2018-07-09T22:07:28.587Z,16.14
2018-07-09T22:09:56.252Z,16.05
2018-07-09T22:12:23.920Z,16.10
2018-07-09T22:14:51.629Z,16.11
2018-07-09T22:17:19.368Z,15.97
2018-07-09T22:19:47.520Z,15.86
2018-07-09T22:22:15.248Z,15.80
2018-07-09T22:24:42.986Z,16.05
2018-07-09T22:27:10.768Z,16.12
2018-07-09T22:29:38.520Z,16.31
2018-07-09T22:32:07.208Z,16.25
2018-07-09T22:34:35.880Z,16.15
2018-07-09T22:37:04.625Z,16.17
2018-07-09T22:39:33.370Z,16.10
2018-07-09T22:42:02.039Z,15.95
2018-07-09T22:44:30.750Z,15.89
2018-07-09T22:46:59.428Z,15.69
2018-07-09T22:49:28.097Z,15.74
2018-07-09T22:51:56.849Z,15.72
2018-07-09T22:54:25.610Z,15.86
2018-07-09T22:56:54.257Z,15.56
2018-07-09T22:59:22.956Z,15.40
2018-07-09T23:01:51.613Z,15.52
2018-07-09T23:04:20.282Z,15.56
2018-07-09T23:06:49.021Z,15.46
2018-07-09T23:10:29.134Z,15.27
2018-07-09T23:13:25.034Z,15.37
2018-07-09T23:16:37.196Z,15.19
2018-07-09T23:19:22.763Z,15.18
2018-07-09T23:22:23.720Z,15.32
2018-07-09T23:24:51.404Z,15.25
2018-07-09T23:27:19.131Z,15.21
2018-07-09T23:29:46.824Z,15.17
2018-07-09T23:32:14.515Z,15.06
2018-07-09T23:34:42.207Z,15.11
2018-07-09T23:37:09.865Z,15.09
2018-07-09T23:39:37.574Z,15.02
2018-07-09T23:42:05.385Z,14.92
2018-07-09T23:44:33.084Z,15.06
2018-07-09T23:47:00.793Z,14.97
2018-07-09T23:49:28.482Z,14.83
2018-07-09T23:51:56.153Z,15.06
2018-07-09T23:54:23.819Z,14.80
2018-07-09T23:59:03.673Z,14.72
